Nearby METAR Reports

 

KAVP - Avoca/Wilkes B., Pennsylvania, USA
Distance from station: SW 13mi, 22km
Updated: Wed, 22-Jan-2020 08:54 EST
Clear
Clear
 Wind from varies
Wind: varies 3 mph , 6 km/h
Temperature: 19°F , -7°C
Dew Point: 12°F , -11°C
Humidity: 73%
Barometer: 30.45 inHg , 1031.2 hPa
Clouds: Clear
Visibility: 8 miles , 13 km
2020/01/22 13:54 KAVP 221354Z VRB03KT 8SM CLR M07/M11 A3045 RMK AO2 SLP324 T10721106
KMPO - Mt. Pocono, Pennsylvania, USA
Distance from station: SSE 26mi, 43km
Updated: Wed, 22-Jan-2020 08:53 EST
Clear
Clear
 Wind from calm
Wind: Calm
Temperature: 16°F , -9°C
Dew Point: 10°F , -12°C
Humidity: 79%
Barometer: 30.36 inHg , 1028.1 hPa
Clouds: Clear
Visibility: 10 miles , 16 km
2020/01/22 13:53 KMPO 221353Z AUTO 00000KT 10SM CLR M09/M12 A3036 RMK AO2 SLP318 T10941117
 
KMSV - Monticello, New York, USA
Distance from station: ENE 43mi, 69km
Updated: Wed, 22-Jan-2020 08:56 EST
Clear
Clear
 Wind from ESE
Wind: ESE 6 mph , 9 km/h
Temperature: 19°F , -7°C
Wind Chill: 11°F , -12°C
Dew Point: 16°F , -9°C
Humidity: 86%
Barometer: 30.40 inHg , 1029.5 hPa
Clouds: Clear
Visibility: 10 miles , 16 km
2020/01/22 13:56 KMSV 221356Z AUTO 12005KT 10SM CLR M07/M09 A3040 RMK AO2 SLP321 T10721094 FZRANO
KFWN - Sussex, New Jersey, USA
Distance from station: ESE 52mi, 84km
Updated: Wed, 22-Jan-2020 08:53 EST
Clear
Clear
 Wind from calm
Wind: Calm
Temperature: 18°F , -8°C
Dew Point: 12°F , -11°C
Humidity: 79%
Barometer: 30.45 inHg , 1031.2 hPa
Clouds: Clear
Visibility: 10 miles , 16 km
2020/01/22 13:53 KFWN 221353Z AUTO 00000KT 10SM CLR M08/M11 A3045 RMK AO2 UPB08E20B40E51 SLP320 P0000 T10831111
 
K12N - Andover, New Jersey, USA
Distance from station: SE 54mi, 87km
Updated: Wed, 22-Jan-2020 08:54 EST

 Wind from calm
Wind: Calm
Temperature: 18°F , -8°C
Dew Point: 16°F , -9°C
Humidity: 93%
Barometer: 30.46 inHg , 1031.5 hPa
2020/01/22 13:54 K12N 221354Z AUTO 00000KT M08/M09 A3046 RMK AO1 SLP334 T10781094
KBGM - Binghamton, New York, USA
Distance from station: NNW 55mi, 88km
Updated: Wed, 22-Jan-2020 08:53 EST
Clear
Clear
 Wind from SW
Wind: SW 6 mph , 9 km/h
Temperature: 16°F , -9°C
Wind Chill: 7°F , -14°C
Dew Point: 10°F , -12°C
Humidity: 79%
Barometer: 30.35 inHg , 1027.8 hPa
Clouds: Clear
Visibility: 10 miles , 16 km
2020/01/22 13:53 KBGM 221353Z 22005KT 10SM CLR M09/M12 A3035 RMK AO2 SLP305 T10891117
 
KABE - Allentown, Pennsylvania, USA
Distance from station: S 58mi, 94km
Updated: Wed, 22-Jan-2020 08:51 EST
Clear
Clear
 Wind from WNW
Wind: WNW 5 mph , 7 km/h
Temperature: 25°F , -4°C
Wind Chill: 19°F , -7°C
Dew Point: 16°F , -9°C
Humidity: 69%
Barometer: 30.48 inHg , 1032.2 hPa
Clouds: Clear
Visibility: 10 miles , 16 km
2020/01/22 13:51 KABE 221351Z 29004KT 10SM CLR M04/M09 A3048 RMK AO2 SLP329 T10441094
KXLL - Allentown Queen, Pennsylvania, USA
Distance from station: S 64mi, 103km
Updated: Wed, 22-Jan-2020 09:15 EST
Clear
Clear
 Wind from calm
Wind: Calm
Temperature: 27°F , -3°C
Dew Point: 19°F , -7°C
Humidity: 74%
Barometer: 30.50 inHg , 1032.8 hPa
Clouds: Clear
Visibility: 10 miles , 16 km
2020/01/22 14:15 KXLL 221415Z AUTO 00000KT 10SM CLR M03/M07 A3050 RMK AO2
 
KMGJ - Montgomery, New York, USA
Distance from station: E 67mi, 108km
Updated: Wed, 22-Jan-2020 08:54 EST
Clear
Clear
 Wind from calm
Wind: Calm
Temperature: 12°F , -11°C
Dew Point: 10°F , -12°C
Humidity: 92%
Barometer: 30.47 inHg , 1031.8 hPa
Clouds: Clear
Visibility: 10 miles , 16 km
2020/01/22 13:54 KMGJ 221354Z AUTO 00000KT 10SM CLR M11/M12 A3047 RMK AO2 SLP323 T11061117
KIPT - Williamsport, Pennsylvania, USA
Distance from station: WSW 72mi, 116km
Updated: Wed, 22-Jan-2020 08:54 EST
Clear
Clear
 Wind from calm
Wind: Calm
Temperature: 18°F , -8°C
Dew Point: 10°F , -12°C
Humidity: 73%
Barometer: 30.49 inHg , 1032.5 hPa
Clouds: Clear
Visibility: 10 miles , 16 km
2020/01/22 13:54 KIPT 221354Z 00000KT 10SM CLR M08/M12 A3049 RMK AO2 SLP333 T10831122
 
KUKT - Quakertown Arp, Pennsylvania, USA
Distance from station: S 74mi, 119km
Updated: Wed, 22-Jan-2020 09:15 EST
Clear
Clear
 Wind from calm
Wind: Calm
Temperature: 25°F , -4°C
Dew Point: 16°F , -9°C
Humidity: 69%
Barometer: 30.47 inHg , 1031.8 hPa
Clouds: Clear
Visibility: 10 miles , 16 km
2020/01/22 14:15 KUKT 221415Z AUTO 00000KT 10SM CLR M04/M09 A3047 RMK A01
KSMQ - Somerville, New Jersey, USA
Distance from station: SE 76mi, 123km
Updated: Wed, 22-Jan-2020 08:53 EST
Clear
Clear
 Wind from calm
Wind: Calm
Temperature: 19°F , -7°C
Dew Point: 14°F , -10°C
Humidity: 79%
Barometer: 30.49 inHg , 1032.5 hPa
Clouds: Clear
Visibility: 10 miles , 16 km
2020/01/22 13:53 KSMQ 221353Z AUTO 00000KT 10SM CLR M07/M10 A3049 RMK AO2 SLP328 T10721100
 
KSWF - Newburgh/Stewart, New York, USA
Distance from station: E 77mi, 123km
Updated: Wed, 22-Jan-2020 08:45 EST
Clear
Clear
 Wind from calm
Wind: Calm
Temperature: 16°F , -9°C
Dew Point: 14°F , -10°C
Humidity: 93%
Barometer: 30.47 inHg , 1031.8 hPa
Clouds: Clear
Visibility: 10 miles , 16 km
2020/01/22 13:45 KSWF 221345Z 00000KT 10SM SKC M09/M10 A3047
KMMU - Morristown Muni, New Jersey, USA
Distance from station: SE 77mi, 124km
Updated: Wed, 22-Jan-2020 08:45 EST
Clear
Clear
 Wind from NW
Wind: NW 3 mph , 6 km/h
Temperature: 23°F , -5°C
Dew Point: 19°F , -7°C
Humidity: 86%
Barometer: 30.49 inHg , 1032.5 hPa
Clouds: Clear
Visibility: 10 miles , 16 km
2020/01/22 13:45 KMMU 221345Z 32003KT 10SM SKC M05/M07 A3049
 
KCDW - Caldwell, New Jersey, USA
Distance from station: ESE 79mi, 127km
Updated: Wed, 22-Jan-2020 08:53 EST
Clear
Clear
 Wind from calm
Wind: Calm
Temperature: 23°F , -5°C
Dew Point: 16°F , -9°C
Humidity: 74%
Barometer: 30.50 inHg , 1032.8 hPa
Clouds: Clear
Visibility: 10 miles , 16 km
2020/01/22 13:53 KCDW 221353Z 00000KT 10SM CLR M05/M09 A3050 RMK AO2 SLP334 T10501089
KRDG - Reading, Pennsylvania, USA
Distance from station: SSW 80mi, 130km
Updated: Wed, 22-Jan-2020 08:54 EST
Clear
Clear
 Wind from calm
Wind: Calm
Temperature: 23°F , -5°C
Dew Point: 18°F , -8°C
Humidity: 80%
Barometer: 30.49 inHg , 1032.5 hPa
Clouds: Clear
Visibility: 10 miles , 16 km
2020/01/22 13:54 KRDG 221354Z 00000KT 10SM CLR M05/M08 A3049 RMK AO2 SLP334 T10501083
 
KITH - Ithaca/Tompkins, New York, USA
Distance from station: NW 81mi, 131km
Updated: Wed, 22-Jan-2020 08:56 EST
Clear
Clear
 Wind from E
Wind: E 6 mph , 9 km/h
Temperature: 14°F , -10°C
Wind Chill: 5°F , -15°C
Dew Point: 12°F , -11°C
Humidity: 92%
Barometer: 30.38 inHg , 1028.8 hPa
Clouds: Clear
Visibility: 10 miles , 16 km
2020/01/22 13:56 KITH 221356Z 09005KT 10SM CLR M10/M11 A3038 RMK AO2 SLP308 T11001106
KSEG - Selinsgrove, Pennsylvania, USA
Distance from station: SW 82mi, 132km
Updated: Wed, 22-Jan-2020 08:53 EST
Clear
Clear
 Wind from calm
Wind: Calm
Temperature: 18°F , -8°C
Dew Point: 12°F , -11°C
Humidity: 79%
Barometer: 30.50 inHg , 1032.8 hPa
Clouds: Clear
Visibility: 10 miles , 16 km
2020/01/22 13:53 KSEG 221353Z AUTO 00000KT 10SM CLR M08/M11 A3050 RMK AO2 SLP335 T10831106
 
KELM - Elmira, New York, USA
Distance from station: WNW 82mi, 133km
Updated: Wed, 22-Jan-2020 08:53 EST
Clear
Clear
 Wind from calm
Wind: Calm
Temperature: 10°F , -12°C
Dew Point: 7°F , -14°C
Humidity: 85%
Barometer: 30.41 inHg , 1029.8 hPa
Clouds: Clear
Visibility: 10 miles , 16 km
2020/01/22 13:53 KELM 221353Z 00000KT 10SM CLR M12/M14 A3041 RMK AO2 SLP315 T11221144
KDYL - Doylestown, Pennsylvania, USA
Distance from station: SSE 83mi, 134km
Updated: Wed, 22-Jan-2020 08:54 EST
Clear
Clear
 Wind from calm
Wind: Calm
Temperature: 27°F , -3°C
Dew Point: 16°F , -9°C
Humidity: 64%
Barometer: 30.48 inHg , 1032.2 hPa
Clouds: Clear
Visibility: 10 miles , 16 km
2020/01/22 13:54 KDYL 221354Z AUTO 00000KT 10SM CLR M03/M09 A3048 RMK AO2 SLP330 T10281089